Time;durP1;ratioP1;P1;durP2;ratioP2;P2;SDS_P1;SDS_P2;PMS_P1;PMS_P2;Temp;Humidity;BMP_temperature;BMP_pressure;BME280_temperature;BME280_humidity;BME280_pressure;Samples;Min_cycle;Max_cycle;Signal;HPM_P1;HPM_P2
2024/03/30 00:01:56;;;;;;;3.75;1.85;;;;;;;;;;5881113;28;20056;-72
2024/03/30 00:04:45;;;;;;;4.07;2.85;;;;;;;;;;5863018;28;20056;-73
2024/03/30 00:07:40;;;;;;;1.75;1.65;;;;;;;;;;5862635;28;20075;-73
2024/03/30 00:10:31;;;;;;;3.65;2.30;;;;;;;;;;5862809;28;20056;-73
2024/03/30 00:13:20;;;;;;;8.48;2.67;;;;;;;;;;5862922;28;20052;-72
2024/03/30 00:16:11;;;;;;;1.92;1.80;;;;;;;;;;5886050;28;20059;-72
2024/03/30 00:19:03;;;;;;;3.90;2.65;;;;;;;;;;5847128;28;20438;-72
2024/03/30 00:21:52;;;;;;;3.92;2.17;;;;;;;;;;5867116;28;20099;-73
2024/03/30 00:24:42;;;;;;;2.30;1.75;;;;;;;;;;5885662;28;20812;-73
2024/03/30 00:27:32;;;;;;;1.73;1.48;;;;;;;;;;5885009;28;20045;-72
2024/03/30 00:30:23;;;;;;;3.15;1.40;;;;;;;;;;5885700;28;20048;-72
2024/03/30 00:33:14;;;;;;;7.13;2.88;;;;;;;;;;5885089;28;20072;-72
2024/03/30 00:36:04;;;;;;;2.58;2.38;;;;;;;;;;5885163;28;20049;-72
2024/03/30 00:38:54;;;;;;;3.05;1.52;;;;;;;;;;5885814;28;20049;-73
2024/03/30 00:41:43;;;;;;;2.08;1.90;;;;;;;;;;5884464;28;20102;-73
2024/03/30 00:44:33;;;;;;;1.10;1.00;;;;;;;;;;5878377;28;20054;-72
2024/03/30 00:47:23;;;;;;;3.55;1.83;;;;;;;;;;5871000;28;20044;-72
2024/03/30 00:50:13;;;;;;;4.22;2.83;;;;;;;;;;5885373;28;20499;-73
2024/03/30 00:53:03;;;;;;;4.10;2.28;;;;;;;;;;5876691;28;20046;-72
2024/03/30 00:56:11;;;;;;;4.10;1.80;;;;;;;;;;5862600;28;20505;-73
2024/03/30 00:59:00;;;;;;;1.80;1.42;;;;;;;;;;5883938;28;20051;-71
2024/03/30 01:01:50;;;;;;;2.83;2.55;;;;;;;;;;5883649;28;20036;-73
2024/03/30 01:04:40;;;;;;;2.65;2.08;;;;;;;;;;5878465;28;20056;-73
2024/03/30 01:07:30;;;;;;;6.10;2.80;;;;;;;;;;5874973;28;20049;-73
2024/03/30 01:10:21;;;;;;;2.10;1.67;;;;;;;;;;5861858;28;20107;-72
2024/03/30 01:13:11;;;;;;;3.30;2.38;;;;;;;;;;5860804;28;20053;-72
2024/03/30 01:16:09;;;;;;;5.65;2.22;;;;;;;;;;5861821;28;20450;-72
2024/03/30 01:18:59;;;;;;;3.35;1.98;;;;;;;;;;5861932;28;20095;-73
2024/03/30 01:21:50;;;;;;;2.17;1.98;;;;;;;;;;5861114;28;20199;-72
2024/03/30 01:24:40;;;;;;;2.92;2.20;;;;;;;;;;5861199;28;20426;-73
2024/03/30 01:27:30;;;;;;;4.55;2.78;;;;;;;;;;5860996;28;20045;-73
2024/03/30 01:30:21;;;;;;;5.18;2.58;;;;;;;;;;5861772;28;20099;-72
2024/03/30 01:33:11;;;;;;;3.25;2.95;;;;;;;;;;5860827;28;20425;-72
2024/03/30 01:36:01;;;;;;;3.90;3.08;;;;;;;;;;5861333;28;20059;-71
2024/03/30 01:38:51;;;;;;;4.10;2.92;;;;;;;;;;5861468;28;20049;-72
2024/03/30 01:41:41;;;;;;;3.30;2.38;;;;;;;;;;5860592;28;20057;-72
2024/03/30 01:44:30;;;;;;;5.88;2.38;;;;;;;;;;5860860;28;20045;-72
2024/03/30 01:47:22;;;;;;;2.00;1.85;;;;;;;;;;5861338;28;20057;-72
2024/03/30 01:50:11;;;;;;;2.45;1.70;;;;;;;;;;5861567;28;20050;-72
2024/03/30 01:53:04;;;;;;;0.98;0.95;;;;;;;;;;5870401;28;20152;-72
2024/03/30 01:55:54;;;;;;;3.05;2.75;;;;;;;;;;5884948;28;20045;-72
2024/03/30 01:58:44;;;;;;;3.40;2.13;;;;;;;;;;5867333;28;20053;-72
2024/03/30 02:01:35;;;;;;;3.85;2.08;;;;;;;;;;5867645;28;20051;-72
2024/03/30 02:04:25;;;;;;;10.27;3.17;;;;;;;;;;5867778;28;20052;-72
2024/03/30 02:07:15;;;;;;;2.75;1.27;;;;;;;;;;5884020;28;20049;-72
2024/03/30 02:10:06;;;;;;;4.70;2.30;;;;;;;;;;5884232;28;20049;-72
2024/03/30 02:12:56;;;;;;;6.88;2.08;;;;;;;;;;5883863;28;20095;-72
2024/03/30 02:15:45;;;;;;;2.55;1.90;;;;;;;;;;5883756;28;20139;-72
2024/03/30 02:18:35;;;;;;;2.58;2.35;;;;;;;;;;5865211;28;20099;-73
2024/03/30 02:21:25;;;;;;;2.40;2.20;;;;;;;;;;5861491;28;20042;-72
2024/03/30 02:24:15;;;;;;;6.88;3.42;;;;;;;;;;5874574;28;20056;-72
2024/03/30 02:27:04;;;;;;;9.90;3.67;;;;;;;;;;5861744;28;20046;-72
2024/03/30 02:30:03;;;;;;;7.20;3.80;;;;;;;;;;5861656;28;20054;-73
2024/03/30 02:32:54;;;;;;;13.50;5.57;;;;;;;;;;5873493;28;20049;-73
2024/03/30 02:35:44;;;;;;;5.90;1.67;;;;;;;;;;5869400;28;20049;-73
2024/03/30 02:38:53;;;;;;;2.70;2.22;;;;;;;;;;5888019;28;20098;-72
2024/03/30 02:41:43;;;;;;;5.97;2.08;;;;;;;;;;5887384;28;20052;-72
2024/03/30 02:44:32;;;;;;;3.03;2.10;;;;;;;;;;5887797;28;20415;-72
2024/03/30 02:47:22;;;;;;;12.95;3.20;;;;;;;;;;5887825;28;20054;-73
2024/03/30 02:50:12;;;;;;;6.65;2.42;;;;;;;;;;5887924;28;20389;-72
2024/03/30 02:53:02;;;;;;;7.40;2.53;;;;;;;;;;5880955;28;20045;-72
2024/03/30 02:55:51;;;;;;;2.22;1.98;;;;;;;;;;5864887;28;20486;-72
2024/03/30 02:58:41;;;;;;;3.05;2.28;;;;;;;;;;5863778;28;20103;-72
2024/03/30 03:01:31;;;;;;;3.28;2.15;;;;;;;;;;5864182;28;20045;-72
2024/03/30 03:04:21;;;;;;;2.42;2.20;;;;;;;;;;5864133;28;20064;-72
2024/03/30 03:07:12;;;;;;;3.17;2.00;;;;;;;;;;5871228;28;20490;-72
2024/03/30 03:10:02;;;;;;;3.63;2.30;;;;;;;;;;5887765;28;20049;-72
2024/03/30 03:12:52;;;;;;;4.68;2.95;;;;;;;;;;5872934;28;20095;-73
2024/03/30 03:15:42;;;;;;;5.38;2.72;;;;;;;;;;5873846;28;20094;-72
2024/03/30 03:18:32;;;;;;;6.55;2.75;;;;;;;;;;5882231;28;20045;-72
2024/03/30 03:21:21;;;;;;;2.47;2.00;;;;;;;;;;5886856;28;20056;-72
2024/03/30 03:24:11;;;;;;;3.25;2.15;;;;;;;;;;5886968;28;20048;-72
2024/03/30 03:27:01;;;;;;;9.00;2.58;;;;;;;;;;5886472;28;20139;-72
2024/03/30 03:29:51;;;;;;;1.75;1.50;;;;;;;;;;5887700;28;20059;-72
2024/03/30 03:32:40;;;;;;;1.98;1.65;;;;;;;;;;5886630;28;20255;-72
2024/03/30 03:35:30;;;;;;;1.75;1.40;;;;;;;;;;5880143;28;20052;-72
2024/03/30 03:38:20;;;;;;;2.55;1.17;;;;;;;;;;5880222;28;20049;-72
2024/03/30 03:41:10;;;;;;;5.65;2.17;;;;;;;;;;5872138;28;20148;-72
2024/03/30 03:43:59;;;;;;;3.08;2.33;;;;;;;;;;5887089;28;20132;-72
2024/03/30 03:46:51;;;;;;;1.50;1.40;;;;;;;;;;5885412;28;20053;-72
2024/03/30 03:49:41;;;;;;;9.68;2.05;;;;;;;;;;5886736;28;20044;-73
2024/03/30 03:52:30;;;;;;;3.58;2.03;;;;;;;;;;5879367;28;20049;-72
2024/03/30 03:55:20;;;;;;;1.85;1.42;;;;;;;;;;5847043;28;20056;-72
2024/03/30 03:58:10;;;;;;;4.05;2.40;;;;;;;;;;5862152;28;20049;-72
2024/03/30 04:01:05;;;;;;;1.35;1.25;;;;;;;;;;5863517;28;20041;-72
2024/03/30 04:03:54;;;;;;;2.65;1.67;;;;;;;;;;5861529;28;20049;-72
2024/03/30 04:06:44;;;;;;;3.55;1.80;;;;;;;;;;5862586;28;20056;-73
2024/03/30 04:09:34;;;;;;;3.95;1.77;;;;;;;;;;5863264;28;20052;-72
2024/03/30 04:12:24;;;;;;;2.53;1.80;;;;;;;;;;5865534;28;20064;-72
2024/03/30 04:15:13;;;;;;;2.05;1.90;;;;;;;;;;5862880;28;20507;-72
2024/03/30 04:18:04;;;;;;;10.93;2.95;;;;;;;;;;5884877;28;20049;-72
2024/03/30 04:21:04;;;;;;;1.85;1.35;;;;;;;;;;5886250;28;20041;-72
2024/03/30 04:23:54;;;;;;;2.40;1.83;;;;;;;;;;5869466;28;20060;-72
2024/03/30 04:26:44;;;;;;;3.80;2.13;;;;;;;;;;5880204;28;20045;-72
2024/03/30 04:29:34;;;;;;;9.07;2.38;;;;;;;;;;5862311;28;20195;-72
2024/03/30 04:32:23;;;;;;;4.50;2.53;;;;;;;;;;5862420;28;20042;-72
2024/03/30 04:35:13;;;;;;;1.42;1.33;;;;;;;;;;5862687;28;20046;-72
2024/03/30 04:38:03;;;;;;;2.25;1.23;;;;;;;;;;5876471;28;20052;-72
2024/03/30 04:40:57;;;;;;;6.07;2.00;;;;;;;;;;5885855;28;20128;-72
2024/03/30 04:43:46;;;;;;;2.38;1.88;;;;;;;;;;5863224;28;20068;-72
2024/03/30 04:46:36;;;;;;;2.03;1.83;;;;;;;;;;5862156;28;20104;-72
2024/03/30 04:49:26;;;;;;;2.65;2.15;;;;;;;;;;5881339;28;20048;-72
2024/03/30 04:52:16;;;;;;;3.80;2.63;;;;;;;;;;5877492;28;20052;-72
2024/03/30 04:55:06;;;;;;;11.52;2.60;;;;;;;;;;5862326;28;20049;-72
2024/03/30 04:57:55;;;;;;;9.52;3.47;;;;;;;;;;5874416;28;20053;-72
2024/03/30 05:00:45;;;;;;;4.60;3.38;;;;;;;;;;5885062;28;20045;-72
2024/03/30 05:03:37;;;;;;;6.50;4.20;;;;;;;;;;5885136;28;20045;-72
2024/03/30 05:06:26;;;;;;;9.75;4.03;;;;;;;;;;5884991;28;20048;-72
2024/03/30 05:09:16;;;;;;;5.03;4.18;;;;;;;;;;5884912;28;20045;-72
2024/03/30 05:12:07;;;;;;;7.20;4.45;;;;;;;;;;5884268;28;20049;-72
2024/03/30 05:14:56;;;;;;;10.93;4.30;;;;;;;;;;5885744;28;20517;-72
2024/03/30 05:17:46;;;;;;;20.95;5.88;;;;;;;;;;5877703;28;20474;-72
2024/03/30 05:21:10;;;;;;;8.15;3.85;;;;;;;;;;5861672;28;20060;-73
2024/03/30 05:23:54;;;;;;;4.78;2.92;;;;;;;;;;5857269;28;20053;-73
2024/03/30 05:26:44;;;;;;;7.72;5.25;;;;;;;;;;5860838;28;20076;-73
2024/03/30 05:29:33;;;;;;;5.32;3.13;;;;;;;;;;5878040;28;20052;-72
2024/03/30 05:32:23;;;;;;;4.78;3.17;;;;;;;;;;5875843;28;20049;-72
2024/03/30 05:35:13;;;;;;;6.78;2.65;;;;;;;;;;5861843;28;20125;-73
2024/03/30 05:38:04;;;;;;;11.13;3.38;;;;;;;;;;5861078;28;20140;-72
2024/03/30 05:40:53;;;;;;;5.50;2.60;;;;;;;;;;5861899;28;20049;-73
2024/03/30 05:43:43;;;;;;;2.67;1.30;;;;;;;;;;5861004;28;20050;-73
2024/03/30 05:46:33;;;;;;;5.40;2.10;;;;;;;;;;5861389;28;20049;-73
2024/03/30 05:49:23;;;;;;;8.43;2.85;;;;;;;;;;5874567;28;20049;-73
2024/03/30 05:52:13;;;;;;;6.07;2.22;;;;;;;;;;5884299;28;20067;-73
2024/03/30 05:55:03;;;;;;;14.25;4.10;;;;;;;;;;5884957;28;20049;-72
2024/03/30 05:57:58;;;;;;;4.68;1.92;;;;;;;;;;5884449;28;20045;-73
2024/03/30 06:00:48;;;;;;;4.50;2.53;;;;;;;;;;5861360;28;20045;-73
2024/03/30 06:03:37;;;;;;;3.20;1.92;;;;;;;;;;5880131;28;20088;-72
2024/03/30 06:06:27;;;;;;;4.40;2.63;;;;;;;;;;5884371;28;20102;-73
2024/03/30 06:09:17;;;;;;;4.65;2.53;;;;;;;;;;5873522;28;20407;-72
2024/03/30 06:12:07;;;;;;;14.13;5.68;;;;;;;;;;5881717;28;20045;-72
2024/03/30 06:14:57;;;;;;;5.78;2.03;;;;;;;;;;5866132;28;20049;-73
2024/03/30 06:17:47;;;;;;;5.53;2.17;;;;;;;;;;5865384;28;20049;-73
2024/03/30 06:20:36;;;;;;;5.70;3.80;;;;;;;;;;5885475;28;20067;-73
2024/03/30 06:23:26;;;;;;;12.25;4.55;;;;;;;;;;5869570;28;20483;-73
2024/03/30 06:26:16;;;;;;;6.38;2.72;;;;;;;;;;5848473;28;20041;-73
2024/03/30 06:29:06;;;;;;;12.75;3.25;;;;;;;;;;5888121;28;20052;-72
2024/03/30 06:31:55;;;;;;;5.80;2.45;;;;;;;;;;5883858;28;20136;-73
2024/03/30 06:34:48;;;;;;;43.60;7.03;;;;;;;;;;5870146;28;20053;-72
2024/03/30 06:37:37;;;;;;;8.52;3.80;;;;;;;;;;5875592;28;20041;-73
2024/03/30 06:43:42;;;;;;;4.03;1.77;;;;;;;;;;5873490;28;20517;-73
2024/03/30 06:46:31;;;;;;;4.28;2.20;;;;;;;;;;5888085;28;20048;-73
2024/03/30 06:49:22;;;;;;;17.52;4.18;;;;;;;;;;5888319;28;20124;-73
2024/03/30 06:52:12;;;;;;;3.80;2.28;;;;;;;;;;5880881;28;20045;-73
2024/03/30 06:55:02;;;;;;;10.55;2.88;;;;;;;;;;5876381;28;20470;-72
2024/03/30 06:57:52;;;;;;;4.80;1.80;;;;;;;;;;5873748;28;20054;-73
2024/03/30 07:00:42;;;;;;;5.93;2.05;;;;;;;;;;5864602;28;20080;-73
2024/03/30 07:03:32;;;;;;;8.18;1.27;;;;;;;;;;5866417;28;20045;-73
2024/03/30 07:06:22;;;;;;;7.20;2.08;;;;;;;;;;5865162;28;20045;-72
2024/03/30 07:09:12;;;;;;;4.97;1.92;;;;;;;;;;5864674;28;20499;-73
2024/03/30 07:12:01;;;;;;;8.27;2.28;;;;;;;;;;5863944;28;20449;-72
2024/03/30 07:14:51;;;;;;;7.38;2.63;;;;;;;;;;5864825;28;20049;-73
2024/03/30 07:17:41;;;;;;;29.65;3.17;;;;;;;;;;5864132;28;20073;-73
2024/03/30 07:20:31;;;;;;;14.65;3.65;;;;;;;;;;5864045;28;20053;-73
2024/03/30 07:23:20;;;;;;;19.75;3.22;;;;;;;;;;5880848;28;20106;-73
2024/03/30 07:26:10;;;;;;;9.57;2.80;;;;;;;;;;5868310;28;20045;-73
2024/03/30 07:29:00;;;;;;;41.45;3.50;;;;;;;;;;5880857;28;20128;-73
2024/03/30 07:31:50;;;;;;;7.50;2.78;;;;;;;;;;5863973;28;20399;-73
2024/03/30 07:34:46;;;;;;;20.00;4.30;;;;;;;;;;5863716;28;20060;-73
2024/03/30 07:37:37;;;;;;;30.98;3.63;;;;;;;;;;5857745;28;20045;-73
2024/03/30 07:40:27;;;;;;;22.17;5.63;;;;;;;;;;5887229;28;20049;-72
2024/03/30 07:43:17;;;;;;;9.73;1.98;;;;;;;;;;5868725;28;20057;-73
2024/03/30 07:46:06;;;;;;;22.73;2.80;;;;;;;;;;5879471;28;20076;-73
2024/03/30 07:48:56;;;;;;;29.15;3.72;;;;;;;;;;5865598;28;20056;-73
2024/03/30 07:51:46;;;;;;;48.63;4.50;;;;;;;;;;5863399;28;20050;-73
2024/03/30 07:54:36;;;;;;;4.82;2.17;;;;;;;;;;5863242;28;20114;-73
2024/03/30 07:57:26;;;;;;;17.80;3.50;;;;;;;;;;5863010;28;20050;-73
2024/03/30 08:00:16;;;;;;;31.45;4.47;;;;;;;;;;5863475;28;20045;-73
2024/03/30 08:03:06;;;;;;;28.30;4.82;;;;;;;;;;5877584;28;20064;-73
2024/03/30 08:05:59;;;;;;;9.65;3.08;;;;;;;;;;5873614;28;20049;-73
2024/03/30 08:08:49;;;;;;;8.85;1.95;;;;;;;;;;5863026;28;20057;-73
2024/03/30 08:11:38;;;;;;;21.48;2.88;;;;;;;;;;5862486;28;20056;-73
2024/03/30 08:14:28;;;;;;;35.47;3.53;;;;;;;;;;5863462;28;20513;-73
2024/03/30 08:17:18;;;;;;;33.95;6.13;;;;;;;;;;5868990;28;20400;-74
2024/03/30 08:20:09;;;;;;;48.83;3.78;;;;;;;;;;5886331;28;20049;-73
2024/03/30 08:22:58;;;;;;;20.30;4.15;;;;;;;;;;5886097;28;20052;-73
2024/03/30 08:25:48;;;;;;;23.08;3.40;;;;;;;;;;5885877;28;20045;-73
2024/03/30 08:28:38;;;;;;;10.07;2.60;;;;;;;;;;5885224;28;20075;-73
2024/03/30 08:31:28;;;;;;;40.60;3.88;;;;;;;;;;5885927;28;20091;-73
2024/03/30 08:34:18;;;;;;;17.15;3.92;;;;;;;;;;5885552;28;20056;-73
2024/03/30 08:37:07;;;;;;;15.02;3.55;;;;;;;;;;5885079;28;20059;-73
2024/03/30 08:39:57;;;;;;;24.20;5.65;;;;;;;;;;5886651;28;20048;-73
2024/03/30 08:42:50;;;;;;;12.52;2.08;;;;;;;;;;5878463;28;20491;-72
2024/03/30 08:45:39;;;;;;;17.45;2.42;;;;;;;;;;5846147;28;20061;-72
2024/03/30 08:48:34;;;;;;;15.82;2.80;;;;;;;;;;5862545;28;20045;-72
2024/03/30 08:51:24;;;;;;;7.88;2.80;;;;;;;;;;5861965;28;20046;-72
2024/03/30 08:54:14;;;;;;;30.02;3.88;;;;;;;;;;5861471;28;20055;-72
2024/03/30 08:57:04;;;;;;;41.80;3.95;;;;;;;;;;5861856;28;20491;-71
2024/03/30 08:59:53;;;;;;;60.63;6.07;;;;;;;;;;5862962;28;20637;-72
2024/03/30 09:02:43;;;;;;;20.45;4.30;;;;;;;;;;5873296;28;20130;-72
2024/03/30 09:05:36;;;;;;;28.90;4.32;;;;;;;;;;5863572;28;20041;-72
2024/03/30 09:08:25;;;;;;;18.42;3.75;;;;;;;;;;5862040;28;20056;-72
2024/03/30 09:11:18;;;;;;;30.67;4.25;;;;;;;;;;5861396;28;20144;-73
2024/03/30 09:14:08;;;;;;;15.00;3.65;;;;;;;;;;5852434;28;20363;-72
2024/03/30 09:17:02;;;;;;;33.03;3.78;;;;;;;;;;5862427;28;20041;-72
2024/03/30 09:19:52;;;;;;;24.27;4.35;;;;;;;;;;5862528;28;20053;-72
2024/03/30 09:22:42;;;;;;;37.40;5.45;;;;;;;;;;5840673;28;20054;-72
2024/03/30 09:25:32;;;;;;;17.85;3.85;;;;;;;;;;5842721;28;20496;-72
2024/03/30 09:28:21;;;;;;;33.60;3.55;;;;;;;;;;5854186;28;20450;-72
2024/03/30 09:31:14;;;;;;;18.20;3.83;;;;;;;;;;5861745;28;20049;-72
2024/03/30 09:34:04;;;;;;;39.55;4.30;;;;;;;;;;5877470;28;20075;-72
2024/03/30 09:36:54;;;;;;;39.65;3.40;;;;;;;;;;5862077;28;20560;-73
2024/03/30 09:39:43;;;;;;;30.80;4.15;;;;;;;;;;5861758;28;20083;-73
2024/03/30 09:42:40;;;;;;;36.40;5.97;;;;;;;;;;5872372;28;20459;-73
2024/03/30 09:45:31;;;;;;;35.78;6.03;;;;;;;;;;5869175;28;20159;-72
2024/03/30 09:48:24;;;;;;;42.38;6.60;;;;;;;;;;5865999;28;20055;-73
2024/03/30 09:51:16;;;;;;;38.67;6.43;;;;;;;;;;5850002;28;20050;-72
2024/03/30 09:54:06;;;;;;;31.98;5.07;;;;;;;;;;5865673;28;20095;-72
2024/03/30 09:56:57;;;;;;;29.42;5.50;;;;;;;;;;5865864;28;20053;-72
2024/03/30 09:59:48;;;;;;;25.75;3.97;;;;;;;;;;5865965;28;20045;-72
2024/03/30 10:02:38;;;;;;;22.77;3.53;;;;;;;;;;5865291;28;20414;-72
2024/03/30 10:05:32;;;;;;;34.88;6.47;;;;;;;;;;5880560;28;20044;-72
2024/03/30 10:08:27;;;;;;;22.92;5.88;;;;;;;;;;5872026;28;20068;-72
2024/03/30 10:11:19;;;;;;;18.40;4.75;;;;;;;;;;5863606;28;20119;-72
2024/03/30 10:14:30;;;;;;;45.40;5.90;;;;;;;;;;5865605;28;20046;-72
2024/03/30 10:17:20;;;;;;;27.85;5.43;;;;;;;;;;5873682;28;20103;-72
2024/03/30 10:20:10;;;;;;;49.28;7.40;;;;;;;;;;5888663;28;20053;-72
2024/03/30 10:23:03;;;;;;;37.17;6.32;;;;;;;;;;5881828;28;20049;-73
2024/03/30 10:25:54;;;;;;;25.55;5.93;;;;;;;;;;5846981;28;20499;-73
2024/03/30 10:28:47;;;;;;;53.28;7.10;;;;;;;;;;5884907;28;20049;-72
2024/03/30 10:31:39;;;;;;;51.08;5.65;;;;;;;;;;5871395;28;20512;-73
2024/03/30 10:34:29;;;;;;;45.63;7.40;;;;;;;;;;5888329;28;20048;-73
2024/03/30 10:37:19;;;;;;;46.28;6.15;;;;;;;;;;5888121;28;20049;-74
2024/03/30 10:40:10;;;;;;;35.85;6.38;;;;;;;;;;5888050;28;20592;-73
2024/03/30 10:43:00;;;;;;;41.08;4.68;;;;;;;;;;5887354;28;20055;-74
2024/03/30 10:45:49;;;;;;;42.92;4.97;;;;;;;;;;5888280;28;20045;-73
2024/03/30 10:48:39;;;;;;;43.35;8.02;;;;;;;;;;5881147;28;20049;-72
2024/03/30 10:51:29;;;;;;;30.02;5.75;;;;;;;;;;5864138;28;20056;-73
2024/03/30 10:54:19;;;;;;;32.17;6.95;;;;;;;;;;5864712;28;20524;-72
2024/03/30 10:57:09;;;;;;;22.48;4.75;;;;;;;;;;5863196;28;20064;-73
2024/03/30 11:00:03;;;;;;;34.35;6.35;;;;;;;;;;5864905;28;20049;-73
2024/03/30 11:02:54;;;;;;;46.05;7.47;;;;;;;;;;5865993;28;20053;-73
2024/03/30 11:05:45;;;;;;;27.13;6.63;;;;;;;;;;5872997;28;20052;-73
2024/03/30 11:08:36;;;;;;;28.70;5.07;;;;;;;;;;5886995;28;20114;-73
2024/03/30 11:11:26;;;;;;;23.85;5.93;;;;;;;;;;5870264;28;20059;-72
2024/03/30 11:14:16;;;;;;;37.55;5.50;;;;;;;;;;5887118;28;20118;-72
2024/03/30 11:17:21;;;;;;;28.67;4.47;;;;;;;;;;5886534;28;20040;-72
2024/03/30 11:20:17;;;;;;;42.03;5.90;;;;;;;;;;5887084;28;20064;-72
2024/03/30 11:23:44;;;;;;;36.55;5.43;;;;;;;;;;5886689;28;20760;-72
2024/03/30 11:26:37;;;;;;;47.03;4.13;;;;;;;;;;5885593;28;20041;-72
2024/03/30 11:29:54;;;;;;;27.10;4.78;;;;;;;;;;5887011;28;20052;-72
2024/03/30 11:32:53;;;;;;;26.40;5.30;;;;;;;;;;5886507;28;20053;-72
2024/03/30 11:36:09;;;;;;;25.73;5.25;;;;;;;;;;5870401;28;20056;-73
2024/03/30 11:39:27;;;;;;;13.77;3.80;;;;;;;;;;5888291;28;20369;-72
2024/03/30 11:42:58;;;;;;;30.75;5.88;;;;;;;;;;5902501;28;20048;-72
2024/03/30 11:45:48;;;;;;;16.70;4.68;;;;;;;;;;5885667;28;20044;-72
2024/03/30 11:48:39;;;;;;;41.00;4.05;;;;;;;;;;5886329;28;20060;-72
2024/03/30 11:51:31;;;;;;;29.33;4.10;;;;;;;;;;5869815;28;20235;-73
2024/03/30 11:54:25;;;;;;;22.67;5.10;;;;;;;;;;5869908;28;20059;-73
2024/03/30 11:57:15;;;;;;;23.00;3.15;;;;;;;;;;5871734;28;20411;-72
2024/03/30 12:00:05;;;;;;;27.63;4.55;;;;;;;;;;5879894;28;20053;-72
2024/03/30 12:02:59;;;;;;;27.20;5.65;;;;;;;;;;5876101;28;20399;-74
2024/03/30 12:05:52;;;;;;;17.08;4.22;;;;;;;;;;5885712;28;20414;-73
2024/03/30 12:08:42;;;;;;;26.05;4.88;;;;;;;;;;5884734;28;20036;-74
2024/03/30 12:11:32;;;;;;;29.20;5.18;;;;;;;;;;5882275;28;20495;-73
2024/03/30 12:14:26;;;;;;;25.13;5.63;;;;;;;;;;5846517;28;20045;-73
2024/03/30 12:17:17;;;;;;;14.82;3.75;;;;;;;;;;5862037;28;20046;-72
2024/03/30 12:20:10;;;;;;;28.80;5.07;;;;;;;;;;5862615;28;20049;-72
2024/03/30 12:23:00;;;;;;;17.95;3.58;;;;;;;;;;5876354;28;20048;-73
2024/03/30 12:25:55;;;;;;;29.25;3.42;;;;;;;;;;5869437;28;20048;-72
2024/03/30 12:28:45;;;;;;;21.67;3.58;;;;;;;;;;5861499;28;20045;-72
2024/03/30 12:31:35;;;;;;;9.75;2.88;;;;;;;;;;5862163;28;20126;-72
2024/03/30 12:34:26;;;;;;;18.83;3.85;;;;;;;;;;5862299;28;20046;-75
2024/03/30 12:37:16;;;;;;;35.63;3.30;;;;;;;;;;5861884;28;20088;-74
2024/03/30 12:40:07;;;;;;;13.85;4.22;;;;;;;;;;5845830;28;20415;-73
2024/03/30 12:42:59;;;;;;;11.20;3.30;;;;;;;;;;5845877;28;20045;-72
2024/03/30 12:45:48;;;;;;;13.50;3.33;;;;;;;;;;5862032;28;20439;-73
2024/03/30 12:48:38;;;;;;;9.88;2.38;;;;;;;;;;5881677;28;20513;-72
2024/03/30 12:51:34;;;;;;;7.40;1.75;;;;;;;;;;5884204;28;20051;-73
2024/03/30 12:54:25;;;;;;;50.65;3.55;;;;;;;;;;5878697;28;20075;-73
2024/03/30 12:57:14;;;;;;;35.42;3.22;;;;;;;;;;5860738;28;20148;-73
2024/03/30 13:00:11;;;;;;;33.38;4.72;;;;;;;;;;5845265;28;20065;-72
2024/03/30 13:03:02;;;;;;;15.30;3.30;;;;;;;;;;5845948;28;20512;-72
2024/03/30 13:05:53;;;;;;;13.65;3.40;;;;;;;;;;5862387;28;20045;-72
2024/03/30 13:08:47;;;;;;;35.85;4.07;;;;;;;;;;5880014;28;20037;-72
2024/03/30 13:11:37;;;;;;;24.38;4.05;;;;;;;;;;5880379;28;20091;-73
2024/03/30 13:14:27;;;;;;;19.52;4.50;;;;;;;;;;5861654;28;20068;-73
2024/03/30 13:17:17;;;;;;;14.90;3.03;;;;;;;;;;5844655;28;20062;-73
2024/03/30 13:20:12;;;;;;;21.42;2.95;;;;;;;;;;5861410;28;20477;-72
2024/03/30 13:23:04;;;;;;;12.98;3.83;;;;;;;;;;5861245;28;20049;-71
2024/03/30 13:25:55;;;;;;;25.75;4.45;;;;;;;;;;5845509;28;20419;-73
2024/03/30 13:28:45;;;;;;;20.95;3.28;;;;;;;;;;5860244;28;20049;-73
2024/03/30 13:31:35;;;;;;;22.67;4.50;;;;;;;;;;5860932;28;20403;-73
2024/03/30 13:34:25;;;;;;;9.85;3.20;;;;;;;;;;5861453;28;20078;-73
2024/03/30 13:37:16;;;;;;;14.48;3.42;;;;;;;;;;5864076;28;20049;-73
2024/03/30 13:40:06;;;;;;;9.85;3.58;;;;;;;;;;5861536;28;20045;-73
2024/03/30 13:42:56;;;;;;;24.90;5.00;;;;;;;;;;5861222;28;20068;-72
2024/03/30 13:45:46;;;;;;;41.35;4.43;;;;;;;;;;5861524;28;20639;-73
2024/03/30 13:48:36;;;;;;;28.23;6.53;;;;;;;;;;5839894;28;20087;-75
2024/03/30 13:51:26;;;;;;;39.85;5.10;;;;;;;;;;5861230;28;20045;-74
2024/03/30 13:54:18;;;;;;;42.88;5.43;;;;;;;;;;5861431;28;20407;-73
2024/03/30 13:57:09;;;;;;;39.50;5.53;;;;;;;;;;5845256;28;20049;-72
2024/03/30 13:59:58;;;;;;;18.75;3.80;;;;;;;;;;5861923;28;20049;-73
2024/03/30 14:02:49;;;;;;;26.85;3.38;;;;;;;;;;5860926;28;20531;-72
2024/03/30 14:05:39;;;;;;;40.78;6.10;;;;;;;;;;5861113;28;20050;-73
2024/03/30 14:08:29;;;;;;;19.35;4.90;;;;;;;;;;5871914;28;20037;-73
2024/03/30 14:11:18;;;;;;;17.10;4.47;;;;;;;;;;5882674;28;20052;-72
2024/03/30 14:14:09;;;;;;;55.25;3.88;;;;;;;;;;5883822;28;20522;-72
2024/03/30 14:17:01;;;;;;;30.08;6.07;;;;;;;;;;5878983;28;20095;-73
2024/03/30 14:19:52;;;;;;;13.40;3.88;;;;;;;;;;5860872;28;20041;-72
2024/03/30 14:22:43;;;;;;;16.73;3.97;;;;;;;;;;5860228;28;20056;-72
2024/03/30 14:25:36;;;;;;;25.50;3.47;;;;;;;;;;5860946;28;20100;-73
2024/03/30 14:28:26;;;;;;;27.17;4.47;;;;;;;;;;5878607;28;20056;-73
2024/03/30 14:31:15;;;;;;;26.00;5.22;;;;;;;;;;5885492;28;20065;-72
2024/03/30 14:34:05;;;;;;;24.42;4.13;;;;;;;;;;5865329;28;20132;-73
2024/03/30 14:36:55;;;;;;;36.20;5.50;;;;;;;;;;5853298;28;20063;-72
2024/03/30 14:39:45;;;;;;;58.83;5.40;;;;;;;;;;5868784;28;20080;-73
2024/03/30 14:42:35;;;;;;;12.73;2.72;;;;;;;;;;5864211;28;20448;-72
2024/03/30 14:45:24;;;;;;;40.13;5.03;;;;;;;;;;5864776;28;20037;-72
2024/03/30 14:48:14;;;;;;;22.67;3.75;;;;;;;;;;5879675;28;20509;-73
2024/03/30 14:51:04;;;;;;;28.17;6.10;;;;;;;;;;5871206;28;20174;-72
2024/03/30 14:53:55;;;;;;;26.23;2.80;;;;;;;;;;5887839;28;20068;-73
2024/03/30 14:56:45;;;;;;;27.58;4.63;;;;;;;;;;5886913;28;20045;-73
2024/03/30 14:59:35;;;;;;;39.15;5.20;;;;;;;;;;5887268;28;20037;-73
2024/03/30 15:02:24;;;;;;;28.33;3.75;;;;;;;;;;5887173;28;20048;-73
2024/03/30 15:05:16;;;;;;;26.33;5.13;;;;;;;;;;5886939;28;20053;-73
2024/03/30 15:08:06;;;;;;;31.80;5.85;;;;;;;;;;5867693;28;20048;-72
2024/03/30 15:10:56;;;;;;;21.02;5.10;;;;;;;;;;5864566;28;20124;-73
2024/03/30 15:13:46;;;;;;;18.17;3.92;;;;;;;;;;5863578;28;20049;-73
2024/03/30 15:16:36;;;;;;;30.65;5.28;;;;;;;;;;5863608;28;20050;-72
2024/03/30 15:19:26;;;;;;;42.67;5.10;;;;;;;;;;5869754;28;20722;-72
2024/03/30 15:22:16;;;;;;;11.43;3.05;;;;;;;;;;5871044;28;20041;-73
2024/03/30 15:25:06;;;;;;;8.32;3.15;;;;;;;;;;5887226;28;20071;-72
2024/03/30 15:27:56;;;;;;;19.38;3.28;;;;;;;;;;5886985;28;20123;-73
2024/03/30 15:33:57;;;;;;;39.78;5.40;;;;;;;;;;5887059;28;20451;-72
2024/03/30 15:36:47;;;;;;;26.80;4.85;;;;;;;;;;5886515;28;20045;-73
2024/03/30 15:39:38;;;;;;;14.15;3.63;;;;;;;;;;5874587;28;20111;-72
2024/03/30 15:42:31;;;;;;;33.95;4.78;;;;;;;;;;5862854;28;20050;-72
2024/03/30 15:45:21;;;;;;;32.88;4.72;;;;;;;;;;5863521;28;20054;-72
2024/03/30 15:48:13;;;;;;;50.67;4.22;;;;;;;;;;5854505;28;20064;-72
2024/03/30 15:51:06;;;;;;;26.33;5.00;;;;;;;;;;5833229;28;20060;-72
2024/03/30 15:53:55;;;;;;;35.28;4.35;;;;;;;;;;5851927;28;20124;-72
2024/03/30 15:56:48;;;;;;;20.65;4.95;;;;;;;;;;5877083;28;20057;-73
2024/03/30 15:59:38;;;;;;;33.97;4.43;;;;;;;;;;5871398;28;20057;-73
2024/03/30 16:02:28;;;;;;;49.88;4.63;;;;;;;;;;5884263;28;20052;-73
2024/03/30 16:05:19;;;;;;;45.55;5.80;;;;;;;;;;5884235;28;20075;-73
2024/03/30 16:08:12;;;;;;;29.67;5.05;;;;;;;;;;5871182;28;20045;-72
2024/03/30 16:11:05;;;;;;;23.48;4.30;;;;;;;;;;5878541;28;20138;-72
2024/03/30 16:13:55;;;;;;;28.00;3.58;;;;;;;;;;5869491;28;20052;-73
2024/03/30 16:16:44;;;;;;;19.45;3.75;;;;;;;;;;5885751;28;20098;-73
2024/03/30 16:19:34;;;;;;;22.17;5.43;;;;;;;;;;5885770;28;20052;-72
2024/03/30 16:22:24;;;;;;;17.80;5.70;;;;;;;;;;5885460;28;20041;-73
2024/03/30 16:25:18;;;;;;;31.52;5.20;;;;;;;;;;5885439;28;20045;-72
2024/03/30 16:28:11;;;;;;;12.23;4.68;;;;;;;;;;5872064;28;20041;-72
2024/03/30 16:31:03;;;;;;;14.27;4.43;;;;;;;;;;5885676;28;20456;-72
2024/03/30 16:33:53;;;;;;;26.00;4.75;;;;;;;;;;5885616;28;20067;-73
2024/03/30 16:36:43;;;;;;;24.95;4.60;;;;;;;;;;5874776;28;20069;-72
2024/03/30 16:39:33;;;;;;;22.40;4.20;;;;;;;;;;5874288;28;20119;-72
2024/03/30 16:42:24;;;;;;;10.57;4.22;;;;;;;;;;5884996;28;20512;-72
2024/03/30 16:45:13;;;;;;;12.80;3.30;;;;;;;;;;5884894;28;20423;-72
2024/03/30 16:48:04;;;;;;;12.35;3.67;;;;;;;;;;5884800;28;20124;-72
2024/03/30 16:51:00;;;;;;;8.95;2.67;;;;;;;;;;5884595;28;20936;-72
2024/03/30 16:53:50;;;;;;;22.83;4.90;;;;;;;;;;5884730;28;20065;-73
2024/03/30 16:56:40;;;;;;;41.55;5.28;;;;;;;;;;5884663;28;20045;-73
2024/03/30 16:59:33;;;;;;;24.10;4.43;;;;;;;;;;5884918;28;20044;-73
2024/03/30 17:02:22;;;;;;;14.02;4.03;;;;;;;;;;5884681;28;20041;-72
2024/03/30 17:05:14;;;;;;;39.33;5.55;;;;;;;;;;5884621;28;20056;-72